Terminal Aerodrome Forecast
Issued by NWS

Home | Current Version | Previous Version | Graphics & Text | Print | Product List | Glossary On
Versions: 1 2 3 4 5 6 7 8 9 10 11 12 13 14 15 16 17 18 19 20 21 22 23 24 25 26 27 28 29 30 31 32 33
000
FTUS43 KGRB 100520
TAFRHI
TAF
KRHI 100520Z 1006/1106 32008KT 6SM -SN SCT025 OVC035
      TEMPO 1006/1008 3SM -SN OVC025
     FM100800 32007KT P6SM -SN OVC035
      TEMPO 1008/1012 4SM -SN OVC025
     FM101200 33008KT P6SM SCT025 OVC035
     FM110100 30003KT P6SM SCT035=

USA.gov is the U.S. government's official web portal to all federal, state and local government web resources and services.